Language: 


Des rapports , des résumés tant et plus, au choix de chacun....


Données Historiques de Météogheer
Journalier Rapport pour Février 11, 2017 Unitée:  Les deux    Impériale   Métrique
Suivant Jour »
Journalier Hebdomadaire Mensuel Annuel Sur mesure
  Max: Min: Moyenne:
Température: 35.4 °F /  1.9 °C 32 °F /  0.0 °C 33.6 °F /  0.9 °C
Point de rosée: 34.3 °F /  1.3 °C 31.5 °F /  -0.3 °C 32.9 °F /  0.5 °C
Humidité: 98% 0% 97%
Vent: 9.8mph /  15.8km/h - 5mph /  8.1km/h
Rafales: 12.3mph /  19.8km/h - -
Vent- - East
Pression: 30.1 in /  1019.9 hPa 0 in /  0.0 hPa -
Pluie: 0 in /  0.0 mm    
Historical Graphs
 
 
Données tabulaires pour Février 11, 2017
Heure Température Point de rosée Pression Vent Vent Rafales Humidité Pluie Taux (Horaire) Conditions
00:04 32.2 °F /  0.1 °C 31.5 °F /  -0.3 °C 30.1in /  1019.9hPa NNW 4.9mph /  7.9km/h 6.5mph /  10.5km/h 97% 0in /  0.0mm
00:09 32.2 °F /  0.1 °C 31.5 °F /  -0.3 °C 30.1in /  1019.9hPa North 1.1mph /  1.8km/h 6.5mph /  10.5km/h 97% 0in /  0.0mm
00:15 32.2 °F /  0.1 °C 31.6 °F /  -0.2 °C 30.1in /  1019.9hPa NNE 4mph /  6.4km/h 6.3mph /  10.1km/h 98% 0in /  0.0mm
00:20 32.2 °F /  0.1 °C 31.5 °F /  -0.3 °C 30.1in /  1019.9hPa NNE 2.7mph /  4.3km/h 6.5mph /  10.5km/h 97% 0in /  0.0mm
00:25 32.2 °F /  0.1 °C 31.5 °F /  -0.3 °C 30.1in /  1018.8hPa North 4.9mph /  7.9km/h 7.2mph /  11.6km/h 97% 0in /  0.0mm
00:30 32.2 °F /  0.1 °C 31.5 °F /  -0.3 °C 30.1in /  1018.8hPa NE 5.8mph /  9.3km/h 7.2mph /  11.6km/h 97% 0in /  0.0mm
00:35 32.2 °F /  0.1 °C 31.5 °F /  -0.3 °C 30.1in /  1018.8hPa NNE 4.3mph /  6.9km/h 6.5mph /  10.5km/h 97% 0in /  0.0mm
00:40 32.2 °F /  0.1 °C 31.5 °F /  -0.3 °C 30.1in /  1018.8hPa North 3.6mph /  5.8km/h 7.2mph /  11.6km/h 97% 0in /  0.0mm
00:45 32.2 °F /  0.1 °C 31.5 °F /  -0.3 °C 30.1in /  1018.8hPa ENE 5.4mph /  8.7km/h 7.2mph /  11.6km/h 97% 0in /  0.0mm
00:50 32.2 °F /  0.1 °C 31.5 °F /  -0.3 °C 30.1in /  1018.8hPa North 3.8mph /  6.1km/h 6.5mph /  10.5km/h 97% 0in /  0.0mm
00:55 32.2 °F /  0.1 °C 31.5 °F /  -0.3 °C 30.1in /  1019.9hPa NE 5.4mph /  8.7km/h 6.5mph /  10.5km/h 97% 0in /  0.0mm
01:00 32.2 °F /  0.1 °C 31.5 °F /  -0.3 °C 30.1in /  1019.9hPa NE 5.8mph /  9.3km/h 6.5mph /  10.5km/h 97% 0in /  0.0mm
01:05 32.2 °F /  0.1 °C 31.5 °F /  -0.3 °C 30.1in /  1019.9hPa NE 4.9mph /  7.9km/h 6.5mph /  10.5km/h 97% 0in /  0.0mm
01:10 32.2 °F /  0.1 °C 31.5 °F /  -0.3 °C 30.1in /  1018.8hPa NE 5.6mph /  9.0km/h 6.3mph /  10.1km/h 97% 0in /  0.0mm
01:15 32.2 °F /  0.1 °C 31.5 °F /  -0.3 °C 30.1in /  1018.8hPa NE 4.3mph /  6.9km/h 6mph /  9.7km/h 97% 0in /  0.0mm
01:20 32.2 °F /  0.1 °C 31.5 °F /  -0.3 °C 30.1in /  1018.8hPa NE 4mph /  6.4km/h 6.3mph /  10.1km/h 97% 0in /  0.0mm
01:25 32.2 °F /  0.1 °C 31.5 °F /  -0.3 °C 30.1in /  1019.9hPa North 5.6mph /  9.0km/h 6.3mph /  10.1km/h 97% 0in /  0.0mm
01:30 32.2 °F /  0.1 °C 31.5 °F /  -0.3 °C 30.1in /  1019.9hPa North 5.6mph /  9.0km/h 6.3mph /  10.1km/h 97% 0in /  0.0mm
01:35 32.2 °F /  0.1 °C 31.5 °F /  -0.3 °C 30.1in /  1019.9hPa NNE 3.8mph /  6.1km/h 6.3mph /  10.1km/h 97% 0in /  0.0mm
01:40 32.2 °F /  0.1 °C 31.5 °F /  -0.3 °C 30.1in /  1018.8hPa NNE 4.7mph /  7.6km/h 6mph /  9.7km/h 97% 0in /  0.0mm
01:45 32.2 °F /  0.1 °C 31.5 °F /  -0.3 °C 30.1in /  1018.8hPa NNE 4mph /  6.4km/h 6.5mph /  10.5km/h 97% 0in /  0.0mm
01:50 32.2 °F /  0.1 °C 31.5 °F /  -0.3 °C 30.1in /  1018.8hPa NNE 4.9mph /  7.9km/h 6.5mph /  10.5km/h 97% 0in /  0.0mm
01:55 32.2 °F /  0.1 °C 31.6 °F /  -0.2 °C 30.1in /  1018.8hPa NNE 3.8mph /  6.1km/h 6.5mph /  10.5km/h 98% 0in /  0.0mm
02:02 32 °F /  0.0 °C 31.6 °F /  -0.2 °C 0in /  0.0hPa Calm     0% 0in /  0.0mm
02:07 32.2 °F /  0.1 °C 31.6 °F /  -0.2 °C 30.1in /  1018.8hPa North 2.9mph /  4.7km/h 5.4mph /  8.7km/h 98% 0in /  0.0mm
02:12 32.2 °F /  0.1 °C 31.6 °F /  -0.2 °C 30.1in /  1018.8hPa NNE 4mph /  6.4km/h 6.5mph /  10.5km/h 98% 0in /  0.0mm
02:17 32.2 °F /  0.1 °C 31.6 °F /  -0.2 °C 30.1in /  1018.8hPa NNE 3.8mph /  6.1km/h 6.5mph /  10.5km/h 98% 0in /  0.0mm
02:22 32.2 °F /  0.1 °C 31.6 °F /  -0.2 °C 30.1in /  1018.2hPa NE 4.3mph /  6.9km/h 5.8mph /  9.3km/h 98% 0in /  0.0mm
02:27 32.2 °F /  0.1 °C 31.6 °F /  -0.2 °C 30.1in /  1018.2hPa NNE 4.3mph /  6.9km/h 6mph /  9.7km/h 98% 0in /  0.0mm
02:32 32.2 °F /  0.1 °C 31.6 °F /  -0.2 °C 30.1in /  1018.2hPa NE 3.6mph /  5.8km/h 6mph /  9.7km/h 98% 0in /  0.0mm
02:37 32.2 °F /  0.1 °C 31.6 °F /  -0.2 °C 30.1in /  1018.2hPa NNE 3.8mph /  6.1km/h 5.6mph /  9.0km/h 98% 0in /  0.0mm
02:42 32.2 °F /  0.1 °C 31.6 °F /  -0.2 °C 30.1in /  1018.2hPa NNE 4mph /  6.4km/h 6.3mph /  10.1km/h 98% 0in /  0.0mm
02:47 32.2 °F /  0.1 °C 31.6 °F /  -0.2 °C 30.1in /  1018.2hPa NNE 4.7mph /  7.6km/h 6.3mph /  10.1km/h 98% 0in /  0.0mm
02:52 32.2 °F /  0.1 °C 31.6 °F /  -0.2 °C 30.1in /  1018.8hPa NNE 4.7mph /  7.6km/h 5.6mph /  9.0km/h 98% 0in /  0.0mm
02:57 32.2 °F /  0.1 °C 31.6 °F /  -0.2 °C 30.1in /  1018.8hPa NNE 4.3mph /  6.9km/h 5.6mph /  9.0km/h 98% 0in /  0.0mm
03:02 32.4 °F /  0.2 °C 31.8 °F /  -0.1 °C 30.1in /  1018.8hPa North 1.3mph /  2.1km/h 5.4mph /  8.7km/h 98% 0in /  0.0mm
03:07 32.4 °F /  0.2 °C 31.8 °F /  -0.1 °C 30.1in /  1018.8hPa NNE 3.4mph /  5.5km/h 4.2mph /  6.8km/h 98% 0in /  0.0mm
03:12 32.4 °F /  0.2 °C 31.8 °F /  -0.1 °C 30.1in /  1018.8hPa NNE 4.7mph /  7.6km/h 5.4mph /  8.7km/h 98% 0in /  0.0mm
03:17 32.4 °F /  0.2 °C 31.8 °F /  -0.1 °C 30.1in /  1018.8hPa NNE 4.9mph /  7.9km/h 5.4mph /  8.7km/h 98% 0in /  0.0mm
03:22 32.4 °F /  0.2 °C 31.8 °F /  -0.1 °C 30.1in /  1018.8hPa NNE 3.6mph /  5.8km/h 5.6mph /  9.0km/h 98% 0in /  0.0mm
03:27 32.4 °F /  0.2 °C 31.8 °F /  -0.1 °C 30.1in /  1018.8hPa North 3.1mph /  5.0km/h 6mph /  9.7km/h 98% 0in /  0.0mm
03:32 32.4 °F /  0.2 °C 31.8 °F /  -0.1 °C 30.1in /  1018.8hPa NE 2.9mph /  4.7km/h 6mph /  9.7km/h 98% 0in /  0.0mm
03:37 32.4 °F /  0.2 °C 31.8 °F /  -0.1 °C 30.1in /  1018.8hPa North 2.7mph /  4.3km/h 5.8mph /  9.3km/h 98% 0in /  0.0mm
03:42 32.4 °F /  0.2 °C 31.8 °F /  -0.1 °C 30.1in /  1018.8hPa Calm   5.4mph /  8.7km/h 98% 0in /  0.0mm
03:47 32.4 °F /  0.2 °C 31.8 °F /  -0.1 °C 30.1in /  1018.8hPa North 4.9mph /  7.9km/h 6mph /  9.7km/h 98% 0in /  0.0mm
03:52 32.4 °F /  0.2 °C 31.8 °F /  -0.1 °C 30.1in /  1018.8hPa NNE 1.1mph /  1.8km/h 6mph /  9.7km/h 98% 0in /  0.0mm
03:57 32.4 °F /  0.2 °C 31.8 °F /  -0.1 °C 30.1in /  1018.8hPa North 4.3mph /  6.9km/h 5.4mph /  8.7km/h 98% 0in /  0.0mm
04:02 32.5 °F /  0.3 °C 32 °F /  0.0 °C 30.1in /  1018.8hPa NE 3.4mph /  5.5km/h 4.9mph /  7.9km/h 98% 0in /  0.0mm
04:07 32.5 °F /  0.3 °C 32 °F /  0.0 °C 30.1in /  1018.8hPa North 3.6mph /  5.8km/h 5.6mph /  9.0km/h 98% 0in /  0.0mm
04:12 32.5 °F /  0.3 °C 32 °F /  0.0 °C 30.1in /  1018.8hPa NE 4.3mph /  6.9km/h 5.8mph /  9.3km/h 98% 0in /  0.0mm
04:17 32.5 °F /  0.3 °C 32 °F /  0.0 °C 30.1in /  1018.8hPa NE 0.9mph /  1.4km/h 5.8mph /  9.3km/h 98% 0in /  0.0mm
04:22 32.5 °F /  0.3 °C 32 °F /  0.0 °C 30.1in /  1018.8hPa ENE 5.4mph /  8.7km/h 5.8mph /  9.3km/h 98% 0in /  0.0mm
04:27 32.5 °F /  0.3 °C 32 °F /  0.0 °C 30.1in /  1018.8hPa NE 4mph /  6.4km/h 6.3mph /  10.1km/h 98% 0in /  0.0mm
04:32 32.5 °F /  0.3 °C 32 °F /  0.0 °C 30.1in /  1018.8hPa NNE 6.5mph /  10.5km/h 6.5mph /  10.5km/h 98% 0in /  0.0mm
04:37 32.5 °F /  0.3 °C 32 °F /  0.0 °C 30.1in /  1018.8hPa NE 4.9mph /  7.9km/h 6.5mph /  10.5km/h 98% 0in /  0.0mm
04:42 32.5 °F /  0.3 °C 32 °F /  0.0 °C 30.1in /  1018.8hPa NNE 5.4mph /  8.7km/h 6.7mph /  10.8km/h 98% 0in /  0.0mm
04:47 32.5 °F /  0.3 °C 32 °F /  0.0 °C 30.1in /  1018.8hPa NE 6mph /  9.7km/h 6.9mph /  11.1km/h 98% 0in /  0.0mm
04:52 32.5 °F /  0.3 °C 32 °F /  0.0 °C 30.1in /  1018.8hPa NNE 5.6mph /  9.0km/h 6.9mph /  11.1km/h 98% 0in /  0.0mm
04:57 32.5 °F /  0.3 °C 32 °F /  0.0 °C 30.1in /  1018.8hPa NNE 4mph /  6.4km/h 6.5mph /  10.5km/h 98% 0in /  0.0mm
05:02 32.5 °F /  0.3 °C 32 °F /  0.0 °C 30.1in /  1018.8hPa NNE 4.9mph /  7.9km/h 8.1mph /  13.0km/h 98% 0in /  0.0mm
05:07 32.5 °F /  0.3 °C 32 °F /  0.0 °C 30.1in /  1018.8hPa NNE 2.9mph /  4.7km/h 8.7mph /  14.0km/h 98% 0in /  0.0mm
05:13 32.5 °F /  0.3 °C 32 °F /  0.0 °C 30.1in /  1018.8hPa ENE 4mph /  6.4km/h 8.7mph /  14.0km/h 98% 0in /  0.0mm
05:18 32.5 °F /  0.3 °C 32 °F /  0.0 °C 30.1in /  1018.8hPa NE 4.3mph /  6.9km/h 7.4mph /  11.9km/h 98% 0in /  0.0mm
05:23 32.5 °F /  0.3 °C 32 °F /  0.0 °C 30.1in /  1018.8hPa NE 4.9mph /  7.9km/h 6.3mph /  10.1km/h 98% 0in /  0.0mm
05:28 32.5 °F /  0.3 °C 32 °F /  0.0 °C 30.1in /  1018.8hPa North 4mph /  6.4km/h 6.3mph /  10.1km/h 98% 0in /  0.0mm
05:33 32.5 °F /  0.3 °C 32 °F /  0.0 °C 30.1in /  1018.8hPa NE 4.3mph /  6.9km/h 6.3mph /  10.1km/h 98% 0in /  0.0mm
05:38 32.5 °F /  0.3 °C 32 °F /  0.0 °C 30.1in /  1018.8hPa NNE 4mph /  6.4km/h 6.5mph /  10.5km/h 98% 0in /  0.0mm
05:43 32.5 °F /  0.3 °C 32 °F /  0.0 °C 30.1in /  1018.8hPa NE 4mph /  6.4km/h 6.5mph /  10.5km/h 98% 0in /  0.0mm
05:48 32.5 °F /  0.3 °C 32 °F /  0.0 °C 30.1in /  1018.8hPa NNE 4.3mph /  6.9km/h 6.3mph /  10.1km/h 98% 0in /  0.0mm
05:53 32.7 °F /  0.4 °C 32.2 °F /  0.1 °C 30.1in /  1018.8hPa NE 5.4mph /  8.7km/h 6.3mph /  10.1km/h 98% 0in /  0.0mm
05:58 32.7 °F /  0.4 °C 32.2 °F /  0.1 °C 30.1in /  1018.8hPa NNE 3.8mph /  6.1km/h 6.3mph /  10.1km/h 98% 0in /  0.0mm
06:03 32.7 °F /  0.4 °C 32.2 °F /  0.1 °C 30.1in /  1018.8hPa NNE 4.9mph /  7.9km/h 6mph /  9.7km/h 98% 0in /  0.0mm
06:08 32.7 °F /  0.4 °C 32.2 °F /  0.1 °C 30.1in /  1018.2hPa NNE 4.7mph /  7.6km/h 6mph /  9.7km/h 98% 0in /  0.0mm
06:13 32.7 °F /  0.4 °C 32.2 °F /  0.1 °C 30.1in /  1018.2hPa North 3.1mph /  5.0km/h 6mph /  9.7km/h 98% 0in /  0.0mm
06:18 32.7 °F /  0.4 °C 32.2 °F /  0.1 °C 30.1in /  1018.2hPa NE 2.9mph /  4.7km/h 6mph /  9.7km/h 98% 0in /  0.0mm
06:23 32.7 °F /  0.4 °C 32.2 °F /  0.1 °C 30.1in /  1018.2hPa NNE 3.6mph /  5.8km/h 6mph /  9.7km/h 98% 0in /  0.0mm
06:28 32.7 °F /  0.4 °C 32.2 °F /  0.1 °C 30.1in /  1018.2hPa NE 4.9mph /  7.9km/h 5.4mph /  8.7km/h 98% 0in /  0.0mm
06:33 32.7 °F /  0.4 °C 32.2 °F /  0.1 °C 30.1in /  1018.2hPa North 4.7mph /  7.6km/h 5.6mph /  9.0km/h 98% 0in /  0.0mm
06:38 32.7 °F /  0.4 °C 32.2 °F /  0.1 °C 30.1in /  1018.8hPa NE 4.9mph /  7.9km/h 5.8mph /  9.3km/h 98% 0in /  0.0mm
06:43 32.7 °F /  0.4 °C 32.2 °F /  0.1 °C 30.1in /  1018.8hPa NNE 4mph /  6.4km/h 6.3mph /  10.1km/h 98% 0in /  0.0mm
06:48 32.7 °F /  0.4 °C 32.2 °F /  0.1 °C 30.1in /  1018.8hPa NE 5.6mph /  9.0km/h 6.3mph /  10.1km/h 98% 0in /  0.0mm
06:53 32.7 °F /  0.4 °C 32.2 °F /  0.1 °C 30.1in /  1018.2hPa NE 3.4mph /  5.5km/h 5.6mph /  9.0km/h 98% 0in /  0.0mm
06:58 32.7 °F /  0.4 °C 32.2 °F /  0.1 °C 30.1in /  1018.2hPa NNE 6mph /  9.7km/h 6mph /  9.7km/h 98% 0in /  0.0mm
07:03 32.7 °F /  0.4 °C 32.2 °F /  0.1 °C 30.1in /  1018.2hPa NE 3.8mph /  6.1km/h 6mph /  9.7km/h 98% 0in /  0.0mm
07:08 32.7 °F /  0.4 °C 32.2 °F /  0.1 °C 30.1in /  1018.8hPa ENE 4mph /  6.4km/h 6.3mph /  10.1km/h 98% 0in /  0.0mm
07:13 32.7 °F /  0.4 °C 32.2 °F /  0.1 °C 30.1in /  1018.8hPa NE 4.7mph /  7.6km/h 6.3mph /  10.1km/h 98% 0in /  0.0mm
07:18 32.7 °F /  0.4 °C 32.2 °F /  0.1 °C 30.1in /  1018.8hPa NNE 5.4mph /  8.7km/h 6.3mph /  10.1km/h 98% 0in /  0.0mm
07:23 32.7 °F /  0.4 °C 32.2 °F /  0.1 °C 30.1in /  1018.8hPa NE 4mph /  6.4km/h 6.5mph /  10.5km/h 98% 0in /  0.0mm
07:28 32.7 °F /  0.4 °C 32.2 °F /  0.1 °C 30.1in /  1018.8hPa NE 5.8mph /  9.3km/h 7.4mph /  11.9km/h 98% 0in /  0.0mm
07:33 32.7 °F /  0.4 °C 32.2 °F /  0.1 °C 30.1in /  1018.8hPa NE 6.3mph /  10.1km/h 7.4mph /  11.9km/h 98% 0in /  0.0mm
07:38 32.7 °F /  0.4 °C 32.2 °F /  0.1 °C 30.1in /  1018.8hPa NNE 4.3mph /  6.9km/h 7.2mph /  11.6km/h 98% 0in /  0.0mm
07:43 32.7 °F /  0.4 °C 32.2 °F /  0.1 °C 30.1in /  1018.8hPa North 5.8mph /  9.3km/h 7.2mph /  11.6km/h 98% 0in /  0.0mm
07:48 32.7 °F /  0.4 °C 32.2 °F /  0.1 °C 30.1in /  1018.8hPa NNE 6.3mph /  10.1km/h 7.6mph /  12.2km/h 98% 0in /  0.0mm
07:53 32.7 °F /  0.4 °C 32.2 °F /  0.1 °C 30.1in /  1018.8hPa NNE 5.4mph /  8.7km/h 8.1mph /  13.0km/h 98% 0in /  0.0mm
07:58 32.7 °F /  0.4 °C 32.2 °F /  0.1 °C 30.1in /  1018.8hPa NNE 4.9mph /  7.9km/h 8.1mph /  13.0km/h 98% 0in /  0.0mm
08:03 32.7 °F /  0.4 °C 32.2 °F /  0.1 °C 30.1in /  1018.8hPa NE 5.8mph /  9.3km/h 7.4mph /  11.9km/h 98% 0in /  0.0mm
08:08 32.7 °F /  0.4 °C 32.2 °F /  0.1 °C 30.1in /  1018.8hPa NNE 5.4mph /  8.7km/h 7.4mph /  11.9km/h 98% 0in /  0.0mm
08:13 32.7 °F /  0.4 °C 32.2 °F /  0.1 °C 30.1in /  1018.8hPa NE 5.4mph /  8.7km/h 6.5mph /  10.5km/h 98% 0in /  0.0mm
08:18 32.7 °F /  0.4 °C 32.2 °F /  0.1 °C 30.1in /  1018.8hPa NE 5.8mph /  9.3km/h 6.7mph /  10.8km/h 98% 0in /  0.0mm
08:23 32.7 °F /  0.4 °C 32.2 °F /  0.1 °C 30.1in /  1018.8hPa North 3.1mph /  5.0km/h 6.7mph /  10.8km/h 98% 0in /  0.0mm
08:28 32.7 °F /  0.4 °C 32.2 °F /  0.1 °C 30.1in /  1018.8hPa NE 4.7mph /  7.6km/h 7.6mph /  12.2km/h 98% 0in /  0.0mm
08:33 32.7 °F /  0.4 °C 32.2 °F /  0.1 °C 30.1in /  1018.8hPa NNE 3.4mph /  5.5km/h 7.6mph /  12.2km/h 98% 0in /  0.0mm
08:38 32.7 °F /  0.4 °C 32.2 °F /  0.1 °C 30.1in /  1018.8hPa NNE 3.4mph /  5.5km/h 6mph /  9.7km/h 98% 0in /  0.0mm
08:43 32.7 °F /  0.4 °C 32.2 °F /  0.1 °C 30.1in /  1018.8hPa NNE 6.5mph /  10.5km/h 6.5mph /  10.5km/h 98% 0in /  0.0mm
08:48 32.7 °F /  0.4 °C 32.2 °F /  0.1 °C 30.1in /  1018.8hPa North 3.8mph /  6.1km/h 6.5mph /  10.5km/h 98% 0in /  0.0mm
08:53 32.7 °F /  0.4 °C 32.2 °F /  0.1 °C 30.1in /  1018.8hPa NNE 4.7mph /  7.6km/h 7.2mph /  11.6km/h 98% 0in /  0.0mm
08:58 32.7 °F /  0.4 °C 32.2 °F /  0.1 °C 30.1in /  1018.8hPa NNE 6mph /  9.7km/h 7.2mph /  11.6km/h 98% 0in /  0.0mm
09:03 32.7 °F /  0.4 °C 32.2 °F /  0.1 °C 30.1in /  1018.8hPa NE 5.6mph /  9.0km/h 6.9mph /  11.1km/h 98% 0in /  0.0mm
09:08 32.9 °F /  0.5 °C 32.4 °F /  0.2 °C 30.1in /  1018.2hPa NE 6.3mph /  10.1km/h 6.5mph /  10.5km/h 98% 0in /  0.0mm
09:13 32.9 °F /  0.5 °C 32.4 °F /  0.2 °C 30.1in /  1018.2hPa NNE 2.9mph /  4.7km/h 6.5mph /  10.5km/h 98% 0in /  0.0mm
09:18 32.9 °F /  0.5 °C 32.4 °F /  0.2 °C 30.1in /  1018.2hPa NNE 5.6mph /  9.0km/h 6.3mph /  10.1km/h 98% 0in /  0.0mm
09:23 32.9 °F /  0.5 °C 32.4 °F /  0.2 °C 30.1in /  1018.2hPa NNE 4.9mph /  7.9km/h 6mph /  9.7km/h 98% 0in /  0.0mm
09:28 33.1 °F /  0.6 °C 32.5 °F /  0.3 °C 30.1in /  1018.2hPa NE 5.8mph /  9.3km/h 6.5mph /  10.5km/h 98% 0in /  0.0mm
09:33 33.1 °F /  0.6 °C 32.5 °F /  0.3 °C 30.1in /  1018.2hPa NE 4.3mph /  6.9km/h 7.2mph /  11.6km/h 98% 0in /  0.0mm
09:38 33.1 °F /  0.6 °C 32.5 °F /  0.3 °C 30.1in /  1018.8hPa NE 8.7mph /  14.0km/h 8.7mph /  14.0km/h 98% 0in /  0.0mm
09:43 33.1 °F /  0.6 °C 32.5 °F /  0.3 °C 30.1in /  1018.8hPa NNE 8.7mph /  14.0km/h 8.7mph /  14.0km/h 98% 0in /  0.0mm
09:48 33.1 °F /  0.6 °C 32.5 °F /  0.3 °C 30.1in /  1018.8hPa NE 6.5mph /  10.5km/h 8.7mph /  14.0km/h 98% 0in /  0.0mm
09:53 33.3 °F /  0.7 °C 32.7 °F /  0.4 °C 30.1in /  1018.2hPa NNE 6.3mph /  10.1km/h 8.9mph /  14.3km/h 98% 0in /  0.0mm
09:58 33.3 °F /  0.7 °C 32.7 °F /  0.4 °C 30.1in /  1018.2hPa NE 7.4mph /  11.9km/h 9.8mph /  15.8km/h 98% 0in /  0.0mm
10:03 33.3 °F /  0.7 °C 32.7 °F /  0.4 °C 30.1in /  1018.2hPa NE 6.5mph /  10.5km/h 9.8mph /  15.8km/h 98% 0in /  0.0mm
10:08 33.3 °F /  0.7 °C 32.7 °F /  0.4 °C 30.1in /  1018.8hPa NE 7.2mph /  11.6km/h 8.7mph /  14.0km/h 98% 0in /  0.0mm
10:13 33.3 °F /  0.7 °C 32.7 °F /  0.4 °C 30.1in /  1018.8hPa NE 5.4mph /  8.7km/h 8.7mph /  14.0km/h 98% 0in /  0.0mm
10:18 33.3 °F /  0.7 °C 32.7 °F /  0.4 °C 30.1in /  1018.8hPa NE 6.7mph /  10.8km/h 8.7mph /  14.0km/h 98% 0in /  0.0mm
10:23 33.4 °F /  0.8 °C 32.9 °F /  0.5 °C 30.1in /  1018.8hPa NE 6.5mph /  10.5km/h 8.1mph /  13.0km/h 98% 0in /  0.0mm
10:28 33.4 °F /  0.8 °C 32.9 °F /  0.5 °C 30.1in /  1018.8hPa NE 6.5mph /  10.5km/h 8.5mph /  13.7km/h 98% 0in /  0.0mm
10:33 33.4 °F /  0.8 °C 32.9 °F /  0.5 °C 30.1in /  1018.8hPa ENE 5.8mph /  9.3km/h 8.5mph /  13.7km/h 98% 0in /  0.0mm
10:39 33.6 °F /  0.9 °C 33.1 °F /  0.6 °C 30.1in /  1018.2hPa NE 6mph /  9.7km/h 8.5mph /  13.7km/h 98% 0in /  0.0mm
10:49 33.8 °F /  1.0 °C 33.3 °F /  0.7 °C 30.1in /  1018.2hPa NE 4.9mph /  7.9km/h 8.1mph /  13.0km/h 98% 0in /  0.0mm
10:54 34 °F /  1.1 °C 33.4 °F /  0.8 °C 30.1in /  1018.8hPa ENE 5.8mph /  9.3km/h 7.4mph /  11.9km/h 98% 0in /  0.0mm
10:59 33.8 °F /  1.0 °C 33.3 °F /  0.7 °C 30.1in /  1018.8hPa NE 7.4mph /  11.9km/h 8.5mph /  13.7km/h 98% 0in /  0.0mm
11:04 34 °F /  1.1 °C 33.4 °F /  0.8 °C 30.1in /  1018.8hPa NE 7.6mph /  12.2km/h 8.9mph /  14.3km/h 98% 0in /  0.0mm
11:09 34 °F /  1.1 °C 33.4 °F /  0.8 °C 30.1in /  1018.2hPa NE 7.8mph /  12.6km/h 8.9mph /  14.3km/h 98% 0in /  0.0mm
11:14 34.2 °F /  1.2 °C 33.6 °F /  0.9 °C 30.1in /  1018.2hPa NNE 8.9mph /  14.3km/h 8.9mph /  14.3km/h 98% 0in /  0.0mm
11:19 34.2 °F /  1.2 °C 33.6 °F /  0.9 °C 30.1in /  1018.2hPa NNE 5.8mph /  9.3km/h 9.4mph /  15.1km/h 98% 0in /  0.0mm
11:24 34.3 °F /  1.3 °C 33.8 °F /  1.0 °C 30.1in /  1018.8hPa NE 7.4mph /  11.9km/h 9.4mph /  15.1km/h 98% 0in /  0.0mm
11:29 34.3 °F /  1.3 °C 33.8 °F /  1.0 °C 30.1in /  1018.8hPa NE 7.8mph /  12.6km/h 8.7mph /  14.0km/h 98% 0in /  0.0mm
11:34 34.5 °F /  1.4 °C 34 °F /  1.1 °C 30.1in /  1018.8hPa NNE 6mph /  9.7km/h 8.7mph /  14.0km/h 98% 0in /  0.0mm
11:39 34.5 °F /  1.4 °C 34 °F /  1.1 °C 30.1in /  1018.2hPa NE 8.1mph /  13.0km/h 8.9mph /  14.3km/h 98% 0in /  0.0mm
11:44 34.5 °F /  1.4 °C 33.6 °F /  0.9 °C 30.1in /  1018.2hPa NNE 8.9mph /  14.3km/h 8.9mph /  14.3km/h 97% 0in /  0.0mm
11:49 34.9 °F /  1.6 °C 34.2 °F /  1.2 °C 30.1in /  1018.2hPa NNW 8.1mph /  13.0km/h 8.9mph /  14.3km/h 97% 0in /  0.0mm
11:54 34.9 °F /  1.6 °C 34.2 °F /  1.2 °C 30.1in /  1018.2hPa NNE 6.3mph /  10.1km/h 9.2mph /  14.8km/h 97% 0in /  0.0mm
11:59 34.9 °F /  1.6 °C 34.2 °F /  1.2 °C 30.1in /  1018.2hPa NE 7.4mph /  11.9km/h 9.4mph /  15.1km/h 97% 0in /  0.0mm
12:04 34.9 °F /  1.6 °C 34.2 °F /  1.2 °C 30.1in /  1018.2hPa NNE 6.3mph /  10.1km/h 9.4mph /  15.1km/h 97% 0in /  0.0mm
12:09 34.9 °F /  1.6 °C 34.2 °F /  1.2 °C 30.1in /  1018.8hPa North 5.8mph /  9.3km/h 8.7mph /  14.0km/h 97% 0in /  0.0mm
12:14 34.9 °F /  1.6 °C 34.2 °F /  1.2 °C 30.1in /  1018.8hPa NE 7.6mph /  12.2km/h 9.6mph /  15.4km/h 97% 0in /  0.0mm
12:19 35.1 °F /  1.7 °C 34.2 °F /  1.2 °C 30.1in /  1018.8hPa NNE 4.9mph /  7.9km/h 9.6mph /  15.4km/h 97% 0in /  0.0mm
12:24 35.1 °F /  1.7 °C 34.2 °F /  1.2 °C 30.1in /  1018.8hPa NE 7.4mph /  11.9km/h 8.7mph /  14.0km/h 97% 0in /  0.0mm
12:29 35.1 °F /  1.7 °C 34.2 °F /  1.2 °C 30.1in /  1018.8hPa NNW 6.5mph /  10.5km/h 8.7mph /  14.0km/h 97% 0in /  0.0mm
12:34 35.1 °F /  1.7 °C 34.2 °F /  1.2 °C 30.1in /  1018.8hPa East 8.1mph /  13.0km/h 9.2mph /  14.8km/h 97% 0in /  0.0mm
12:39 35.1 °F /  1.7 °C 34.2 °F /  1.2 °C 30.1in /  1018.8hPa NE 9.8mph /  15.8km/h 10.1mph /  16.3km/h 97% 0in /  0.0mm
12:44 35.1 °F /  1.7 °C 34 °F /  1.1 °C 30.1in /  1018.8hPa NE 7.6mph /  12.2km/h 12.3mph /  19.8km/h 96% 0in /  0.0mm
12:49 35.1 °F /  1.7 °C 34 °F /  1.1 °C 30.1in /  1018.8hPa NNE 6.9mph /  11.1km/h 12.3mph /  19.8km/h 96% 0in /  0.0mm
12:54 35.1 °F /  1.7 °C 34 °F /  1.1 °C 30.1in /  1018.8hPa NE 7.4mph /  11.9km/h 10.1mph /  16.3km/h 96% 0in /  0.0mm
12:59 35.1 °F /  1.7 °C 34 °F /  1.1 °C 30.1in /  1018.8hPa NNE 6.5mph /  10.5km/h 10.1mph /  16.3km/h 96% 0in /  0.0mm
13:04 35.1 °F /  1.7 °C 34 °F /  1.1 °C 30.1in /  1018.8hPa North 6.3mph /  10.1km/h 8.7mph /  14.0km/h 96% 0in /  0.0mm
13:09 35.1 °F /  1.7 °C 34 °F /  1.1 °C 30.1in /  1018.8hPa NNE 7.6mph /  12.2km/h 8.7mph /  14.0km/h 96% 0in /  0.0mm
13:14 35.1 °F /  1.7 °C 34 °F /  1.1 °C 30.1in /  1018.8hPa NE 6mph /  9.7km/h 8.7mph /  14.0km/h 96% 0in /  0.0mm
13:19 35.2 °F /  1.8 °C 34.2 °F /  1.2 °C 30.1in /  1018.8hPa NNE 8.7mph /  14.0km/h 9.6mph /  15.4km/h 96% 0in /  0.0mm
13:24 35.2 °F /  1.8 °C 34.2 °F /  1.2 °C 30.1in /  1018.8hPa NE 7.6mph /  12.2km/h 9.6mph /  15.4km/h 96% 0in /  0.0mm
13:29 35.4 °F /  1.9 °C 34.3 °F /  1.3 °C 30.1in /  1018.8hPa NE 8.1mph /  13.0km/h 9.6mph /  15.4km/h 96% 0in /  0.0mm
13:34 35.2 °F /  1.8 °C 34.2 °F /  1.2 °C 30.1in /  1018.8hPa NE 7.6mph /  12.2km/h 9.8mph /  15.8km/h 96% 0in /  0.0mm
13:39 35.4 °F /  1.9 °C 34.3 °F /  1.3 °C 30.1in /  1018.8hPa NE 7.8mph /  12.6km/h 10.1mph /  16.3km/h 96% 0in /  0.0mm
13:44 35.4 °F /  1.9 °C 34.3 °F /  1.3 °C 30.1in /  1018.8hPa NE 7.6mph /  12.2km/h 10.1mph /  16.3km/h 96% 0in /  0.0mm
13:49 35.4 °F /  1.9 °C 34.3 °F /  1.3 °C 30.1in /  1018.8hPa NNE 7.8mph /  12.6km/h 10.7mph /  17.2km/h 96% 0in /  0.0mm
13:54 35.2 °F /  1.8 °C 34.2 °F /  1.2 °C 30.1in /  1018.8hPa NNE 8.1mph /  13.0km/h 10.7mph /  17.2km/h 96% 0in /  0.0mm
13:59 35.1 °F /  1.7 °C 34 °F /  1.1 °C 30.1in /  1018.8hPa NNE 7.6mph /  12.2km/h 9.8mph /  15.8km/h 96% 0in /  0.0mm
14:04 35.1 °F /  1.7 °C 34 °F /  1.1 °C 30.1in /  1018.8hPa NE 8.1mph /  13.0km/h 10.7mph /  17.2km/h 96% 0in /  0.0mm
14:09 35.1 °F /  1.7 °C 34 °F /  1.1 °C 30.1in /  1018.8hPa NNE 7.8mph /  12.6km/h 10.7mph /  17.2km/h 96% 0in /  0.0mm
14:14 35.1 °F /  1.7 °C 34 °F /  1.1 °C 30.1in /  1018.8hPa NE 5.4mph /  8.7km/h 10.1mph /  16.3km/h 96% 0in /  0.0mm
14:19 35.1 °F /  1.7 °C 34 °F /  1.1 °C 30.1in /  1018.8hPa NNE 7.4mph /  11.9km/h 10.1mph /  16.3km/h 96% 0in /  0.0mm
14:24 34.9 °F /  1.6 °C 33.8 °F /  1.0 °C 30.1in /  1019.9hPa NE 7.4mph /  11.9km/h 9.8mph /  15.8km/h 96% 0in /  0.0mm
14:29 34.9 °F /  1.6 °C 33.8 °F /  1.0 °C 30.1in /  1019.9hPa NNE 6.3mph /  10.1km/h 8.7mph /  14.0km/h 96% 0in /  0.0mm
14:34 34.9 °F /  1.6 °C 33.8 °F /  1.0 °C 30.1in /  1019.9hPa North 7.4mph /  11.9km/h 8.7mph /  14.0km/h 96% 0in /  0.0mm
14:39 34.9 °F /  1.6 °C 33.8 °F /  1.0 °C 30.1in /  1018.8hPa NNE 7.6mph /  12.2km/h 8.7mph /  14.0km/h 96% 0in /  0.0mm
14:44 34.9 °F /  1.6 °C 33.8 °F /  1.0 °C 30.1in /  1018.8hPa NE 8.5mph /  13.7km/h 8.7mph /  14.0km/h 96% 0in /  0.0mm
14:50 34.9 °F /  1.6 °C 33.8 °F /  1.0 °C 30.1in /  1018.8hPa NNE 6mph /  9.7km/h 8.7mph /  14.0km/h 96% 0in /  0.0mm
14:55 35.1 °F /  1.7 °C 34 °F /  1.1 °C 30.1in /  1018.8hPa NE 6.5mph /  10.5km/h 8.1mph /  13.0km/h 96% 0in /  0.0mm
15:00 35.1 °F /  1.7 °C 34 °F /  1.1 °C 30.1in /  1018.8hPa NE 4.3mph /  6.9km/h 7.2mph /  11.6km/h 96% 0in /  0.0mm
15:05 35.1 °F /  1.7 °C 34 °F /  1.1 °C 30.1in /  1018.8hPa NNE 7.6mph /  12.2km/h 8.5mph /  13.7km/h 96% 0in /  0.0mm
15:10 35.1 °F /  1.7 °C 34 °F /  1.1 °C 30.1in /  1018.8hPa NE 4.3mph /  6.9km/h 8.5mph /  13.7km/h 96% 0in /  0.0mm
15:15 35.1 °F /  1.7 °C 34 °F /  1.1 °C 30.1in /  1018.8hPa NNE 7.6mph /  12.2km/h 8.5mph /  13.7km/h 96% 0in /  0.0mm
15:20 35.1 °F /  1.7 °C 34 °F /  1.1 °C 30.1in /  1018.8hPa NE 5.6mph /  9.0km/h 8.5mph /  13.7km/h 96% 0in /  0.0mm
15:25 35.1 °F /  1.7 °C 34 °F /  1.1 °C 30.1in /  1018.8hPa NE 6.5mph /  10.5km/h 8.5mph /  13.7km/h 96% 0in /  0.0mm
15:30 35.1 °F /  1.7 °C 34 °F /  1.1 °C 30.1in /  1018.8hPa NE 5.6mph /  9.0km/h 7.8mph /  12.6km/h 96% 0in /  0.0mm
15:35 34.9 °F /  1.6 °C 33.8 °F /  1.0 °C 30.1in /  1018.8hPa NE 6.3mph /  10.1km/h 8.1mph /  13.0km/h 96% 0in /  0.0mm
15:40 34.9 °F /  1.6 °C 33.8 °F /  1.0 °C 30.1in /  1018.8hPa North 7.2mph /  11.6km/h 8.1mph /  13.0km/h 96% 0in /  0.0mm
15:45 34.9 °F /  1.6 °C 33.8 °F /  1.0 °C 30.1in /  1018.8hPa NNE 6mph /  9.7km/h 8.5mph /  13.7km/h 96% 0in /  0.0mm
15:50 34.9 °F /  1.6 °C 33.8 °F /  1.0 °C 30.1in /  1018.8hPa NE 3.8mph /  6.1km/h 8.7mph /  14.0km/h 96% 0in /  0.0mm
15:55 34.9 °F /  1.6 °C 33.8 °F /  1.0 °C 30.1in /  1018.8hPa ENE 4.7mph /  7.6km/h 8.7mph /  14.0km/h 96% 0in /  0.0mm
16:00 34.9 °F /  1.6 °C 33.8 °F /  1.0 °C 30.1in /  1018.8hPa North 4.9mph /  7.9km/h 8.5mph /  13.7km/h 96% 0in /  0.0mm
16:05 34.9 °F /  1.6 °C 34.2 °F /  1.2 °C 30.1in /  1018.8hPa NNE 7.2mph /  11.6km/h 7.6mph /  12.2km/h 97% 0in /  0.0mm
16:10 34.5 °F /  1.4 °C 34 °F /  1.1 °C 30.1in /  1018.2hPa NNE 3.1mph /  5.0km/h 8.5mph /  13.7km/h 97% 0in /  0.0mm
16:15 34.5 °F /  1.4 °C 34 °F /  1.1 °C 30.1in /  1018.2hPa NE 7.4mph /  11.9km/h 8.5mph /  13.7km/h 97% 0in /  0.0mm
16:20 34.5 °F /  1.4 °C 34 °F /  1.1 °C 30.1in /  1018.2hPa NE 5.6mph /  9.0km/h 8.5mph /  13.7km/h 97% 0in /  0.0mm
16:25 34.5 °F /  1.4 °C 34 °F /  1.1 °C 30.1in /  1018.2hPa NE 6.7mph /  10.8km/h 8.9mph /  14.3km/h 97% 0in /  0.0mm
16:30 34.5 °F /  1.4 °C 34 °F /  1.1 °C 30.1in /  1018.2hPa NNE 6.5mph /  10.5km/h 8.9mph /  14.3km/h 97% 0in /  0.0mm
16:35 34.5 °F /  1.4 °C 34 °F /  1.1 °C 30.1in /  1018.2hPa NE 5.4mph /  8.7km/h 8.7mph /  14.0km/h 97% 0in /  0.0mm
16:40 34.5 °F /  1.4 °C 33.6 °F /  0.9 °C 30.1in /  1018.2hPa North 5.8mph /  9.3km/h 8.5mph /  13.7km/h 97% 0in /  0.0mm
16:45 34.5 °F /  1.4 °C 33.6 °F /  0.9 °C 30.1in /  1018.2hPa NNE 7.6mph /  12.2km/h 9.4mph /  15.1km/h 97% 0in /  0.0mm
16:50 34.5 °F /  1.4 °C 33.6 °F /  0.9 °C 30.1in /  1018.2hPa ENE 7.8mph /  12.6km/h 9.4mph /  15.1km/h 97% 0in /  0.0mm
16:55 34.5 °F /  1.4 °C 33.6 °F /  0.9 °C 30.1in /  1018.8hPa NE 7.2mph /  11.6km/h 8.5mph /  13.7km/h 97% 0in /  0.0mm
17:00 34.5 °F /  1.4 °C 33.6 °F /  0.9 °C 30.1in /  1018.8hPa NE 8.1mph /  13.0km/h 8.1mph /  13.0km/h 97% 0in /  0.0mm
17:05 34.5 °F /  1.4 °C 33.6 °F /  0.9 °C 30.1in /  1018.8hPa NE 7.8mph /  12.6km/h 8.1mph /  13.0km/h 97% 0in /  0.0mm
17:10 34.5 °F /  1.4 °C 33.6 °F /  0.9 °C 30.1in /  1018.8hPa NE 5.6mph /  9.0km/h 8.1mph /  13.0km/h 97% 0in /  0.0mm
17:15 34.5 °F /  1.4 °C 33.6 °F /  0.9 °C 30.1in /  1018.8hPa NE 4.3mph /  6.9km/h 8.1mph /  13.0km/h 97% 0in /  0.0mm
17:20 34.5 °F /  1.4 °C 33.6 °F /  0.9 °C 30.1in /  1018.8hPa NE 5.8mph /  9.3km/h 8.1mph /  13.0km/h 97% 0in /  0.0mm
17:25 34.5 °F /  1.4 °C 33.6 °F /  0.9 °C 30.1in /  1018.8hPa NE 6mph /  9.7km/h 8.1mph /  13.0km/h 97% 0in /  0.0mm
17:30 34.5 °F /  1.4 °C 33.6 °F /  0.9 °C 30.1in /  1018.8hPa NNE 5.6mph /  9.0km/h 8.1mph /  13.0km/h 97% 0in /  0.0mm
17:35 34.5 °F /  1.4 °C 33.6 °F /  0.9 °C 30.1in /  1018.8hPa NNE 4mph /  6.4km/h 7.6mph /  12.2km/h 97% 0in /  0.0mm
17:40 34.5 °F /  1.4 °C 33.6 °F /  0.9 °C 30.1in /  1018.8hPa NNE 6mph /  9.7km/h 7.6mph /  12.2km/h 97% 0in /  0.0mm
17:45 34.5 °F /  1.4 °C 33.6 °F /  0.9 °C 30.1in /  1018.8hPa North 4mph /  6.4km/h 7.4mph /  11.9km/h 97% 0in /  0.0mm
17:50 34.5 °F /  1.4 °C 33.6 °F /  0.9 °C 30.1in /  1018.8hPa NNE 6.5mph /  10.5km/h 7.4mph /  11.9km/h 97% 0in /  0.0mm
17:55 34.3 °F /  1.3 °C 33.4 °F /  0.8 °C 30.1in /  1018.8hPa NE 6mph /  9.7km/h 7.4mph /  11.9km/h 97% 0in /  0.0mm
18:00 34.3 °F /  1.3 °C 33.4 °F /  0.8 °C 30.1in /  1018.8hPa NE 5.8mph /  9.3km/h 7.4mph /  11.9km/h 97% 0in /  0.0mm
18:05 34.3 °F /  1.3 °C 33.4 °F /  0.8 °C 30.1in /  1018.8hPa NE 5.8mph /  9.3km/h 7.4mph /  11.9km/h 97% 0in /  0.0mm
18:10 34.3 °F /  1.3 °C 33.4 °F /  0.8 °C 30.1in /  1018.8hPa NE 4.3mph /  6.9km/h 7.2mph /  11.6km/h 97% 0in /  0.0mm
18:15 34.3 °F /  1.3 °C 33.4 °F /  0.8 °C 30.1in /  1018.8hPa NE 4mph /  6.4km/h 5.6mph /  9.0km/h 97% 0in /  0.0mm
18:20 34.3 °F /  1.3 °C 33.4 °F /  0.8 °C 30.1in /  1018.8hPa NNE 4mph /  6.4km/h 5.8mph /  9.3km/h 97% 0in /  0.0mm
18:25 34.3 °F /  1.3 °C 33.4 °F /  0.8 °C 30.1in /  1018.8hPa NNE 3.8mph /  6.1km/h 6.5mph /  10.5km/h 97% 0in /  0.0mm
18:31 34.3 °F /  1.3 °C 33.4 °F /  0.8 °C 30.1in /  1018.8hPa NNE 3.6mph /  5.8km/h 6.5mph /  10.5km/h 97% 0in /  0.0mm
18:36 34.3 °F /  1.3 °C 33.4 °F /  0.8 °C 30.1in /  1018.8hPa NE 5.6mph /  9.0km/h 7.6mph /  12.2km/h 97% 0in /  0.0mm
18:41 34.3 °F /  1.3 °C 33.4 °F /  0.8 °C 30.1in /  1018.8hPa NNE 5.4mph /  8.7km/h 7.6mph /  12.2km/h 97% 0in /  0.0mm
18:46 34.3 °F /  1.3 °C 33.4 °F /  0.8 °C 30.1in /  1018.8hPa NE 5.4mph /  8.7km/h 7.2mph /  11.6km/h 97% 0in /  0.0mm
18:51 34.3 °F /  1.3 °C 33.4 °F /  0.8 °C 30.1in /  1018.8hPa NE 3.6mph /  5.8km/h 7.2mph /  11.6km/h 97% 0in /  0.0mm
18:56 34.3 °F /  1.3 °C 33.4 °F /  0.8 °C 30.1in /  1018.8hPa NE 6.3mph /  10.1km/h 6.5mph /  10.5km/h 97% 0in /  0.0mm
19:01 34.3 °F /  1.3 °C 33.4 °F /  0.8 °C 30.1in /  1018.8hPa NNE 5.4mph /  8.7km/h 7.2mph /  11.6km/h 97% 0in /  0.0mm
19:06 34.5 °F /  1.4 °C 33.6 °F /  0.9 °C 30.1in /  1018.8hPa NNE 6mph /  9.7km/h 7.8mph /  12.6km/h 97% 0in /  0.0mm
19:11 34.3 °F /  1.3 °C 33.4 °F /  0.8 °C 30.1in /  1018.8hPa NE 6.5mph /  10.5km/h 7.8mph /  12.6km/h 97% 0in /  0.0mm
19:16 34.5 °F /  1.4 °C 33.6 °F /  0.9 °C 30.1in /  1018.8hPa NE 7.4mph /  11.9km/h 7.8mph /  12.6km/h 97% 0in /  0.0mm
19:21 34.3 °F /  1.3 °C 33.8 °F /  1.0 °C 30.1in /  1018.8hPa NNE 5.8mph /  9.3km/h 7.4mph /  11.9km/h 98% 0in /  0.0mm
19:26 34.3 °F /  1.3 °C 33.4 °F /  0.8 °C 30.1in /  1018.8hPa NNE 5.8mph /  9.3km/h 7.4mph /  11.9km/h 97% 0in /  0.0mm
19:31 34.3 °F /  1.3 °C 33.8 °F /  1.0 °C 30.1in /  1018.8hPa NE 3.6mph /  5.8km/h 6.5mph /  10.5km/h 98% 0in /  0.0mm
19:36 34.3 °F /  1.3 °C 33.8 °F /  1.0 °C 30.1in /  1018.8hPa NNE 7.4mph /  11.9km/h 7.6mph /  12.2km/h 98% 0in /  0.0mm
19:41 34.3 °F /  1.3 °C 33.4 °F /  0.8 °C 30.1in /  1018.8hPa NNE 5.4mph /  8.7km/h 7.6mph /  12.2km/h 97% 0in /  0.0mm
19:46 34.3 °F /  1.3 °C 33.8 °F /  1.0 °C 30.1in /  1018.8hPa NE 5.4mph /  8.7km/h 7.6mph /  12.2km/h 98% 0in /  0.0mm
19:51 34.3 °F /  1.3 °C 33.8 °F /  1.0 °C 30.1in /  1018.8hPa NE 4.9mph /  7.9km/h 7.6mph /  12.2km/h 98% 0in /  0.0mm
19:56 34.3 °F /  1.3 °C 33.8 °F /  1.0 °C 30.1in /  1018.8hPa NNE 3.1mph /  5.0km/h 6.5mph /  10.5km/h 98% 0in /  0.0mm
20:01 34.3 °F /  1.3 °C 33.8 °F /  1.0 °C 30.1in /  1018.8hPa NNE 4.9mph /  7.9km/h 5.4mph /  8.7km/h 98% 0in /  0.0mm
20:06 34.3 °F /  1.3 °C 33.8 °F /  1.0 °C 30.1in /  1018.8hPa NNW 5.8mph /  9.3km/h 6.5mph /  10.5km/h 98% 0in /  0.0mm
20:11 34.3 °F /  1.3 °C 33.8 °F /  1.0 °C 30.1in /  1018.8hPa NE 5.8mph /  9.3km/h 6.5mph /  10.5km/h 98% 0in /  0.0mm
20:16 34.3 °F /  1.3 °C 33.8 °F /  1.0 °C 30.1in /  1018.8hPa NNE 5.6mph /  9.0km/h 6.5mph /  10.5km/h 98% 0in /  0.0mm
20:21 34.3 °F /  1.3 °C 33.8 °F /  1.0 °C 30.1in /  1018.8hPa North 5.8mph /  9.3km/h 6.5mph /  10.5km/h 98% 0in /  0.0mm
20:26 34.2 °F /  1.2 °C 33.6 °F /  0.9 °C 30.1in /  1018.8hPa North 3.8mph /  6.1km/h 6.3mph /  10.1km/h 98% 0in /  0.0mm
20:31 34.2 °F /  1.2 °C 33.6 °F /  0.9 °C 30.1in /  1018.8hPa NE 4.7mph /  7.6km/h 7.4mph /  11.9km/h 98% 0in /  0.0mm
20:36 34.2 °F /  1.2 °C 33.6 °F /  0.9 °C 30.1in /  1018.8hPa North 5.4mph /  8.7km/h 7.4mph /  11.9km/h 98% 0in /  0.0mm
20:41 34.2 °F /  1.2 °C 33.6 °F /  0.9 °C 30.1in /  1019.9hPa NE 4.9mph /  7.9km/h 6.5mph /  10.5km/h 98% 0in /  0.0mm
20:46 34.2 °F /  1.2 °C 33.6 °F /  0.9 °C 30.1in /  1019.9hPa NE 6.3mph /  10.1km/h 7.6mph /  12.2km/h 98% 0in /  0.0mm
20:51 34.2 °F /  1.2 °C 33.6 °F /  0.9 °C 30.1in /  1019.9hPa NE 5.4mph /  8.7km/h 7.6mph /  12.2km/h 98% 0in /  0.0mm
20:56 34.2 °F /  1.2 °C 33.6 °F /  0.9 °C 30.1in /  1018.8hPa ENE 5.6mph /  9.0km/h 6.5mph /  10.5km/h 98% 0in /  0.0mm
21:01 34 °F /  1.1 °C 33.3 °F /  0.7 °C 30.1in /  1018.8hPa ENE 6.5mph /  10.5km/h 8.5mph /  13.7km/h 97% 0in /  0.0mm
21:06 34 °F /  1.1 °C 33.3 °F /  0.7 °C 30.1in /  1018.8hPa East 5.6mph /  9.0km/h 8.5mph /  13.7km/h 97% 0in /  0.0mm
21:11 34 °F /  1.1 °C 33.3 °F /  0.7 °C 30.1in /  1018.8hPa ENE 5.6mph /  9.0km/h 7.6mph /  12.2km/h 97% 0in /  0.0mm
21:16 34 °F /  1.1 °C 33.3 °F /  0.7 °C 30.1in /  1018.8hPa ENE 3.1mph /  5.0km/h 7.4mph /  11.9km/h 97% 0in /  0.0mm
21:21 34 °F /  1.1 °C 33.3 °F /  0.7 °C 30.1in /  1018.8hPa ENE 6.3mph /  10.1km/h 7.4mph /  11.9km/h 97% 0in /  0.0mm
21:26 34 °F /  1.1 °C 33.3 °F /  0.7 °C 30.1in /  1018.8hPa NE 7.4mph /  11.9km/h 8.9mph /  14.3km/h 97% 0in /  0.0mm
21:31 33.8 °F /  1.0 °C 32.7 °F /  0.4 °C 30.1in /  1018.8hPa NE 7.2mph /  11.6km/h 8.9mph /  14.3km/h 96% 0in /  0.0mm
21:36 33.8 °F /  1.0 °C 32.7 °F /  0.4 °C 30.1in /  1018.8hPa NE 4mph /  6.4km/h 8.9mph /  14.3km/h 96% 0in /  0.0mm
21:41 33.8 °F /  1.0 °C 32.7 °F /  0.4 °C 30.1in /  1018.8hPa NE 2.9mph /  4.7km/h 8.7mph /  14.0km/h 96% 0in /  0.0mm
21:46 33.8 °F /  1.0 °C 32.7 °F /  0.4 °C 30.1in /  1018.8hPa East 5.8mph /  9.3km/h 6.5mph /  10.5km/h 96% 0in /  0.0mm
21:51 33.8 °F /  1.0 °C 32.7 °F /  0.4 °C 30.1in /  1018.8hPa ENE 3.1mph /  5.0km/h 7.6mph /  12.2km/h 96% 0in /  0.0mm
21:56 33.8 °F /  1.0 °C 32.7 °F /  0.4 °C 30.1in /  1018.2hPa NNE 4.9mph /  7.9km/h 7.6mph /  12.2km/h 96% 0in /  0.0mm
22:01 33.8 °F /  1.0 °C 32.7 °F /  0.4 °C 30.1in /  1018.2hPa ENE 4.9mph /  7.9km/h 8.1mph /  13.0km/h 96% 0in /  0.0mm
22:06 33.8 °F /  1.0 °C 32.7 °F /  0.4 °C 30.1in /  1018.2hPa North 5.6mph /  9.0km/h 8.1mph /  13.0km/h 96% 0in /  0.0mm
22:11 33.8 °F /  1.0 °C 32.7 °F /  0.4 °C 30.1in /  1018.2hPa North 2.2mph /  3.5km/h 5.8mph /  9.3km/h 96% 0in /  0.0mm
22:17 33.8 °F /  1.0 °C 32.7 °F /  0.4 °C 30.1in /  1018.2hPa ENE 2.9mph /  4.7km/h 4.3mph /  6.9km/h 96% 0in /  0.0mm
22:22 33.8 °F /  1.0 °C 32.7 °F /  0.4 °C 30.1in /  1018.2hPa ENE 2.2mph /  3.5km/h 4.3mph /  6.9km/h 96% 0in /  0.0mm
22:27 33.8 °F /  1.0 °C 32.7 °F /  0.4 °C 30.1in /  1018.8hPa Calm   3.8mph /  6.1km/h 96% 0in /  0.0mm
22:32 34 °F /  1.1 °C 32.9 °F /  0.5 °C 30.1in /  1018.8hPa Calm   2.7mph /  4.3km/h 96% 0in /  0.0mm
22:36 34 °F /  1.1 °C 32.9 °F /  0.5 °C 30.1in /  1018.8hPa Calm     96% 0in /  0.0mm
22:41 34 °F /  1.1 °C 32.9 °F /  0.5 °C 30.1in /  1018.2hPa Calm     96% 0in /  0.0mm
22:46 34 °F /  1.1 °C 32.9 °F /  0.5 °C 30.1in /  1018.2hPa NNW 1.3mph /  2.1km/h 1.3mph /  2.1km/h 96% 0in /  0.0mm
22:52 34 °F /  1.1 °C 32.9 °F /  0.5 °C 30.1in /  1018.2hPa Calm   1.3mph /  2.1km/h 96% 0in /  0.0mm
22:57 34 °F /  1.1 °C 32.9 °F /  0.5 °C 30.1in /  1019.9hPa Calm   1.3mph /  2.1km/h 96% 0in /  0.0mm
23:02 34 °F /  1.1 °C 32.9 °F /  0.5 °C 30.1in /  1019.9hPa North 2.5mph /  4.0km/h 2.5mph /  4.0km/h 96% 0in /  0.0mm
23:07 34 °F /  1.1 °C 32.9 °F /  0.5 °C 30.1in /  1019.9hPa Calm   2.5mph /  4.0km/h 96% 0in /  0.0mm
23:12 34 °F /  1.1 °C 32.9 °F /  0.5 °C 30.1in /  1018.8hPa Calm   2.5mph /  4.0km/h 96% 0in /  0.0mm
23:17 34 °F /  1.1 °C 32.9 °F /  0.5 °C 30.1in /  1018.8hPa Calm     96% 0in /  0.0mm
23:22 34 °F /  1.1 °C 32.9 °F /  0.5 °C 30.1in /  1018.8hPa North 0.9mph /  1.4km/h 2.7mph /  4.3km/h 96% 0in /  0.0mm
23:27 34 °F /  1.1 °C 32.9 °F /  0.5 °C 30.1in /  1018.8hPa Calm   2.7mph /  4.3km/h 96% 0in /  0.0mm
23:32 34 °F /  1.1 °C 32.9 °F /  0.5 °C 30.1in /  1018.8hPa Calm   2mph /  3.2km/h 96% 0in /  0.0mm
23:37 34 °F /  1.1 °C 32.9 °F /  0.5 °C 30.1in /  1018.8hPa Calm   0.9mph /  1.4km/h 96% 0in /  0.0mm
23:42 34 °F /  1.1 °C 32.9 °F /  0.5 °C 30.1in /  1018.8hPa Calm   2mph /  3.2km/h 96% 0in /  0.0mm
23:47 34 °F /  1.1 °C 32.9 °F /  0.5 °C 30.1in /  1018.8hPa Calm   2mph /  3.2km/h 96% 0in /  0.0mm
23:52 34 °F /  1.1 °C 32.9 °F /  0.5 °C 30.1in /  1018.2hPa NNE 2.2mph /  3.5km/h 2.7mph /  4.3km/h 96% 0in /  0.0mm
23:57 34 °F /  1.1 °C 32.9 °F /  0.5 °C 30.1in /  1018.2hPa Calm   3.1mph /  5.0km/h 96% 0in /  0.0mm
Données Historique de Météo Turbie

Mise a jour : 24/05/2018 23:20:13
Généré par Cumulus 1.9.4 (1099)